Lazarevskaya, Russia
Current Conditions -  °F | °C
As of 12:00 AM on Monday 24 Nov 2014 (Local Time) from URSS Reporting Station
Broken Clouds Broken Clouds  
Wind Chill: 38°   Ceiling: 4000
Heat Index: 45°   Visibility: 6mi
Dew Point: 32°   Wind: 13mph
Humidity: 61%   Direction: 90°E
Pressure: 30.12"   Gusts: NA
Location:  43.91°N, 39.33°E
Report Text: URSS 232100Z 09006MPS 9999 BKN040 07/00 Q1020 NOSIG RMKR02/06004G07MPS MT OBSC QFE764 06000070 02000070
Loading
Personal Weather Stations






























Interactive Weather Map New forecast layout! Learn more

10-Day Weather Forecast

Advertisements
Track Severe Weather on mobile